createdAt,value
2024-02-14T00:00:14.963Z,-6.12
2024-02-14T00:02:50.484Z,-5.94
2024-02-14T00:05:17.524Z,-5.96
2024-02-14T00:07:44.366Z,-6.59
2024-02-14T00:10:11.082Z,-5.73
2024-02-14T00:12:38.303Z,-5.80
2024-02-14T00:15:07.235Z,-5.89
2024-02-14T00:17:35.284Z,-5.58
2024-02-14T00:20:02.261Z,-5.68
2024-02-14T00:22:28.895Z,-5.09
2024-02-14T00:24:55.761Z,-5.56
2024-02-14T00:27:22.417Z,-5.71
2024-02-14T00:29:49.558Z,-6.31
2024-02-14T00:32:16.497Z,-6.31
2024-02-14T00:34:43.462Z,-5.48
2024-02-14T00:37:10.176Z,-5.76
2024-02-14T00:39:37.122Z,-6.45
2024-02-14T00:42:03.969Z,-5.70
2024-02-14T00:44:30.715Z,-5.73
2024-02-14T00:47:00.774Z,-5.25
2024-02-14T00:49:27.729Z,-5.64
2024-02-14T00:51:54.459Z,-5.74
2024-02-14T00:54:21.390Z,-5.38
2024-02-14T00:56:48.029Z,-5.33
2024-02-14T00:59:14.743Z,-5.10
2024-02-14T01:01:41.404Z,-4.97
2024-02-14T01:04:08.447Z,-5.03
2024-02-14T01:06:35.307Z,-5.59
2024-02-14T01:09:02.438Z,-5.18
2024-02-14T01:11:29.798Z,-5.34
2024-02-14T01:13:56.508Z,-5.68
2024-02-14T01:16:23.400Z,-5.71
2024-02-14T01:18:51.109Z,-5.16
2024-02-14T01:21:17.870Z,-4.92
2024-02-14T01:23:44.574Z,-4.97
2024-02-14T01:26:11.262Z,-5.04
2024-02-14T01:28:39.117Z,-5.38
2024-02-14T01:31:05.768Z,-5.31
2024-02-14T01:33:32.808Z,-5.78
2024-02-14T01:36:00.227Z,-5.81
2024-02-14T01:38:26.818Z,-5.41
2024-02-14T01:40:53.672Z,-5.35
2024-02-14T01:43:21.928Z,-5.29
2024-02-14T01:45:48.880Z,-5.75
2024-02-14T01:48:19.853Z,-5.39
2024-02-14T01:50:47.043Z,-5.97
2024-02-14T01:53:14.147Z,-5.26
2024-02-14T01:55:41.070Z,-5.66
2024-02-14T01:58:08.111Z,-5.43
2024-02-14T02:00:35.581Z,-5.27
2024-02-14T02:03:06.610Z,-5.45
2024-02-14T02:05:35.291Z,-5.17
2024-02-14T02:08:02.587Z,-5.10
2024-02-14T02:10:30.457Z,-5.04
2024-02-14T02:13:01.376Z,-4.91
2024-02-14T02:15:29.827Z,-5.24
2024-02-14T02:17:57.260Z,-5.04
2024-02-14T02:20:23.981Z,-4.99
2024-02-14T02:22:50.735Z,-5.09
2024-02-14T02:25:17.373Z,-5.05
2024-02-14T02:27:44.379Z,-4.79
2024-02-14T02:30:11.649Z,-4.99
2024-02-14T02:32:39.043Z,-4.94
2024-02-14T02:35:06.054Z,-5.10
2024-02-14T02:37:32.929Z,-5.15
2024-02-14T02:39:59.589Z,-5.40
2024-02-14T02:42:26.242Z,-5.43
2024-02-14T02:44:53.110Z,-5.02
2024-02-14T02:47:19.843Z,-5.04
2024-02-14T02:49:46.897Z,-5.19
2024-02-14T02:52:13.655Z,-5.04
2024-02-14T02:54:44.999Z,-5.17
2024-02-14T02:57:12.513Z,-5.14
2024-02-14T02:59:40.524Z,-5.03
2024-02-14T03:02:09.685Z,-5.03
2024-02-14T03:04:46.228Z,-5.03
2024-02-14T03:07:19.897Z,-5.00
2024-02-14T03:09:46.575Z,-4.87
2024-02-14T03:12:17.261Z,-4.80
2024-02-14T03:14:45.350Z,-5.27
2024-02-14T03:17:12.508Z,-5.39
2024-02-14T03:19:40.421Z,-4.92
2024-02-14T03:22:10.334Z,-4.83
2024-02-14T03:24:38.389Z,-4.82
2024-02-14T03:27:08.406Z,-4.56
2024-02-14T03:29:36.847Z,-4.61
2024-02-14T03:32:05.792Z,-4.54
2024-02-14T03:34:34.973Z,-4.89
2024-02-14T03:37:03.339Z,-5.51
2024-02-14T03:39:30.488Z,-4.98
2024-02-14T03:41:57.326Z,-5.00
2024-02-14T03:44:24.470Z,-5.57
2024-02-14T03:46:51.322Z,-5.62
2024-02-14T03:49:18.205Z,-5.86
2024-02-14T03:51:45.031Z,-5.06
2024-02-14T03:54:12.971Z,-5.26
2024-02-14T03:56:39.979Z,-5.25
2024-02-14T03:59:07.230Z,-5.61
2024-02-14T04:01:34.100Z,-5.56
2024-02-14T04:04:01.063Z,-5.37
2024-02-14T04:06:28.336Z,-6.02
2024-02-14T04:08:55.386Z,-6.11
2024-02-14T04:11:22.038Z,-5.72
2024-02-14T04:13:48.735Z,-5.79
2024-02-14T04:16:15.330Z,-5.96
2024-02-14T04:18:43.685Z,-5.61
2024-02-14T04:21:10.713Z,-6.01
2024-02-14T04:23:37.563Z,-6.01
2024-02-14T04:26:04.520Z,-6.15
2024-02-14T04:28:31.148Z,-6.09
2024-02-14T04:30:58.234Z,-6.25
2024-02-14T04:33:25.442Z,-6.53
2024-02-14T04:35:52.289Z,-6.31
2024-02-14T04:38:20.959Z,-5.87
2024-02-14T04:40:47.589Z,-5.96
2024-02-14T04:43:14.292Z,-6.00
2024-02-14T04:45:41.039Z,-6.35
2024-02-14T04:48:09.187Z,-6.36
2024-02-14T04:50:36.068Z,-6.19
2024-02-14T04:53:02.736Z,-6.22
2024-02-14T04:55:30.409Z,-6.15
2024-02-14T04:57:57.138Z,-6.34
2024-02-14T05:00:23.951Z,-6.35
2024-02-14T05:02:50.870Z,-6.29
2024-02-14T05:05:17.782Z,-6.42
2024-02-14T05:07:44.684Z,-6.02
2024-02-14T05:10:11.382Z,-6.31
2024-02-14T05:12:38.396Z,-5.98
2024-02-14T05:15:05.404Z,-5.77
2024-02-14T05:17:32.449Z,-6.25
2024-02-14T05:19:59.412Z,-6.18
2024-02-14T05:22:26.209Z,-6.23
2024-02-14T05:24:52.870Z,-6.17
2024-02-14T05:27:19.542Z,-5.57
2024-02-14T05:29:46.385Z,-5.47
2024-02-14T05:32:13.019Z,-5.58
2024-02-14T05:34:39.664Z,-5.74
2024-02-14T05:37:07.083Z,-5.68
2024-02-14T05:39:33.790Z,-5.89
2024-02-14T05:42:00.640Z,-5.33
2024-02-14T05:44:28.661Z,-5.99
2024-02-14T05:46:56.135Z,-5.99
2024-02-14T05:49:23.360Z,-6.09
2024-02-14T05:51:51.199Z,-6.12
2024-02-14T05:54:17.952Z,-5.86
2024-02-14T05:56:44.562Z,-5.34
2024-02-14T05:59:11.330Z,-5.35
2024-02-14T06:01:38.008Z,-5.22
2024-02-14T06:04:04.846Z,-5.64
2024-02-14T06:06:33.501Z,-5.48
2024-02-14T06:09:00.283Z,-5.20
2024-02-14T06:11:27.101Z,-5.52
2024-02-14T06:13:54.373Z,-5.05
2024-02-14T06:16:20.986Z,-4.82
2024-02-14T06:18:47.885Z,-4.67
2024-02-14T06:21:14.649Z,-4.96
2024-02-14T06:23:41.510Z,-5.59
2024-02-14T06:26:08.170Z,-5.20
2024-02-14T06:28:34.840Z,-5.40
2024-02-14T06:31:02.022Z,-5.11
2024-02-14T06:33:29.630Z,-5.16
2024-02-14T06:35:56.787Z,-4.97
2024-02-14T06:38:23.535Z,-4.70
2024-02-14T06:40:50.602Z,-4.88
2024-02-14T06:43:17.292Z,-5.39
2024-02-14T06:45:44.819Z,-5.15
2024-02-14T06:48:11.818Z,-4.87
2024-02-14T06:50:38.639Z,-4.82
2024-02-14T06:53:05.882Z,-4.89
2024-02-14T06:55:33.402Z,-4.86
2024-02-14T06:58:00.710Z,-5.00
2024-02-14T07:00:27.572Z,-4.88
2024-02-14T07:02:55.132Z,-4.63
2024-02-14T07:05:21.764Z,-4.83
2024-02-14T07:07:48.798Z,-4.89
2024-02-14T07:10:15.630Z,-4.06
2024-02-14T07:12:42.761Z,-4.53
2024-02-14T07:15:09.915Z,-3.97
2024-02-14T07:17:37.038Z,-4.20
2024-02-14T07:20:04.482Z,-4.17
2024-02-14T07:22:32.029Z,-3.67
2024-02-14T07:24:58.912Z,-3.57
2024-02-14T07:27:25.665Z,-3.61
2024-02-14T07:29:52.682Z,-3.59
2024-02-14T07:32:19.766Z,-3.76
2024-02-14T07:34:47.419Z,-3.41
2024-02-14T07:37:16.132Z,-3.14
2024-02-14T07:39:42.871Z,-3.04
2024-02-14T07:42:09.582Z,-2.93
2024-02-14T07:44:36.324Z,-2.56
2024-02-14T07:47:04.825Z,-2.69
2024-02-14T07:49:33.408Z,-3.21
2024-02-14T07:52:00.758Z,-3.46
2024-02-14T07:54:28.706Z,-3.10
2024-02-14T07:56:56.162Z,-3.10
2024-02-14T07:59:22.824Z,-2.09
2024-02-14T08:01:49.518Z,-2.70
2024-02-14T08:04:17.254Z,-2.00
2024-02-14T08:06:46.058Z,-2.16
2024-02-14T08:09:12.829Z,-2.75
2024-02-14T08:11:39.674Z,-2.24
2024-02-14T08:14:06.574Z,-2.06
2024-02-14T08:16:33.569Z,-2.21
2024-02-14T08:19:00.775Z,-1.94
2024-02-14T08:21:31.696Z,-2.07
2024-02-14T08:24:00.816Z,-1.89
2024-02-14T08:26:28.459Z,-1.02
2024-02-14T08:28:55.189Z,-0.84
2024-02-14T08:31:21.961Z,-0.58
2024-02-14T08:33:48.894Z,-0.18
2024-02-14T08:36:18.629Z,-0.73
2024-02-14T08:38:45.616Z,-0.34
2024-02-14T08:41:13.399Z,-0.87
2024-02-14T08:43:40.226Z,-1.11
2024-02-14T08:46:13.046Z,-0.90
2024-02-14T08:48:47.572Z,-0.05
2024-02-14T08:51:15.721Z,-0.58
2024-02-14T08:53:46.581Z,0.62
2024-02-14T08:56:14.292Z,0.45
2024-02-14T08:58:41.312Z,0.16
2024-02-14T09:01:14.134Z,0.60
2024-02-14T09:03:49.990Z,1.01
2024-02-14T09:06:19.275Z,0.73
2024-02-14T09:08:46.436Z,1.17
2024-02-14T09:11:13.680Z,1.93
2024-02-14T09:13:43.584Z,1.28
2024-02-14T09:16:11.482Z,1.24
2024-02-14T09:18:38.702Z,1.67
2024-02-14T09:21:07.094Z,1.69
2024-02-14T09:23:34.326Z,2.11
2024-02-14T09:26:01.363Z,1.68
2024-02-14T09:28:28.072Z,1.76
2024-02-14T09:30:56.026Z,1.58
2024-02-14T09:33:22.934Z,2.18
2024-02-14T09:35:50.025Z,2.41
2024-02-14T09:38:16.767Z,2.44
2024-02-14T09:40:44.007Z,2.43
2024-02-14T09:43:34.134Z,2.65
2024-02-14T09:46:01.039Z,3.15
2024-02-14T09:48:28.483Z,3.32
2024-02-14T09:50:56.183Z,3.40
2024-02-14T09:53:24.065Z,3.66
2024-02-14T09:55:55.624Z,3.94
2024-02-14T09:58:23.280Z,4.49
2024-02-14T10:00:50.070Z,4.27
2024-02-14T10:03:17.421Z,4.34
2024-02-14T10:05:44.162Z,4.63
2024-02-14T10:08:12.007Z,5.04
2024-02-14T10:10:39.061Z,5.00
2024-02-14T10:13:06.667Z,4.88
2024-02-14T10:15:33.632Z,5.30
2024-02-14T10:18:01.165Z,5.11
2024-02-14T10:20:28.008Z,5.10
2024-02-14T10:23:01.809Z,4.80
2024-02-14T10:25:28.447Z,5.45
2024-02-14T10:27:55.604Z,4.56
2024-02-14T10:30:23.004Z,4.46
2024-02-14T10:32:50.487Z,4.46
2024-02-14T10:35:18.424Z,5.13
2024-02-14T10:37:45.374Z,5.26
2024-02-14T10:40:12.193Z,6.05
2024-02-14T10:42:38.855Z,6.00
2024-02-14T10:45:06.911Z,6.36
2024-02-14T10:47:37.571Z,7.68
2024-02-14T10:50:08.468Z,7.57
2024-02-14T10:52:37.460Z,7.71
2024-02-14T10:55:05.325Z,7.51
2024-02-14T10:57:35.181Z,7.93
2024-02-14T11:00:04.164Z,9.82
2024-02-14T11:02:31.865Z,9.54
2024-02-14T11:04:58.828Z,9.41
2024-02-14T11:07:28.909Z,10.09
2024-02-14T11:10:21.742Z,8.41
2024-02-14T11:12:49.937Z,9.06
2024-02-14T11:15:24.379Z,7.78
2024-02-14T11:17:53.471Z,8.04
2024-02-14T11:20:21.681Z,8.85
2024-02-14T11:22:56.279Z,8.78
2024-02-14T11:25:30.819Z,8.63
2024-02-14T11:27:58.199Z,10.13
2024-02-14T11:30:30.084Z,8.71
2024-02-14T11:32:57.070Z,9.70
2024-02-14T11:35:24.292Z,8.33
2024-02-14T11:37:54.797Z,8.24
2024-02-14T11:40:22.173Z,7.82
2024-02-14T11:42:49.025Z,8.88
2024-02-14T11:45:16.045Z,8.14
2024-02-14T11:47:43.126Z,8.23
2024-02-14T11:50:11.211Z,8.23
2024-02-14T11:52:38.318Z,8.37
2024-02-14T11:55:05.165Z,8.10
2024-02-14T11:57:32.020Z,7.77
2024-02-14T11:59:59.180Z,8.48
2024-02-14T12:02:25.984Z,7.62
2024-02-14T12:04:55.393Z,7.96
2024-02-14T12:07:23.511Z,7.97
2024-02-14T12:09:50.421Z,8.45
2024-02-14T12:12:17.568Z,9.65
2024-02-14T12:14:45.092Z,7.77
2024-02-14T12:17:11.920Z,8.32
2024-02-14T12:19:39.652Z,8.78
2024-02-14T12:22:12.918Z,8.93
2024-02-14T12:24:39.645Z,8.91
2024-02-14T12:27:06.990Z,7.77
2024-02-14T12:29:36.162Z,8.27
2024-02-14T12:32:09.276Z,7.79
2024-02-14T12:34:36.954Z,8.07
2024-02-14T12:37:06.624Z,8.15
2024-02-14T12:39:33.346Z,8.03
2024-02-14T12:42:03.569Z,7.88
2024-02-14T12:44:30.387Z,7.65
2024-02-14T12:46:58.060Z,7.96
2024-02-14T12:49:27.373Z,7.71
2024-02-14T12:51:54.186Z,8.23
2024-02-14T12:54:20.831Z,7.91
2024-02-14T12:56:47.554Z,7.59
2024-02-14T12:59:19.335Z,8.13
2024-02-14T13:01:46.347Z,8.46
2024-02-14T13:04:13.326Z,8.30
2024-02-14T13:06:40.203Z,9.51
2024-02-14T13:09:07.320Z,8.83
2024-02-14T13:11:34.246Z,8.81
2024-02-14T13:14:01.028Z,8.48
2024-02-14T13:16:27.850Z,8.21
2024-02-14T13:18:54.924Z,8.90
2024-02-14T13:21:21.653Z,8.47
2024-02-14T13:23:49.119Z,7.89
2024-02-14T13:26:15.961Z,8.49
2024-02-14T13:28:42.592Z,7.53
2024-02-14T13:31:11.426Z,7.59
2024-02-14T13:33:38.416Z,7.77
2024-02-14T13:36:06.209Z,7.91
2024-02-14T13:38:32.899Z,8.22
2024-02-14T13:41:00.688Z,8.13
2024-02-14T13:43:27.401Z,8.39
2024-02-14T13:45:54.091Z,7.92
2024-02-14T13:48:20.943Z,7.66
2024-02-14T13:50:47.738Z,7.79
2024-02-14T13:53:14.412Z,8.19
2024-02-14T13:55:41.318Z,7.88
2024-02-14T13:58:10.923Z,8.30
2024-02-14T14:00:37.812Z,8.62
2024-02-14T14:03:04.682Z,8.14
2024-02-14T14:05:31.513Z,9.07
2024-02-14T14:08:00.083Z,9.24
2024-02-14T14:10:28.105Z,8.89
2024-02-14T14:12:55.331Z,8.57
2024-02-14T14:15:23.874Z,9.25
2024-02-14T14:17:51.389Z,8.51
2024-02-14T14:20:19.918Z,9.61
2024-02-14T14:22:46.797Z,9.41
2024-02-14T14:25:13.582Z,9.98
2024-02-14T14:27:40.283Z,10.69
2024-02-14T14:30:08.381Z,9.00
2024-02-14T14:32:35.282Z,9.72
2024-02-14T14:35:02.190Z,9.70
2024-02-14T14:37:28.929Z,9.02
2024-02-14T14:39:57.473Z,8.92
2024-02-14T14:42:24.389Z,8.61
2024-02-14T14:44:51.291Z,9.08
2024-02-14T14:47:18.445Z,8.77
2024-02-14T14:49:45.204Z,8.23
2024-02-14T14:52:11.974Z,9.27
2024-02-14T14:54:38.940Z,9.18
2024-02-14T14:57:10.916Z,9.42
2024-02-14T14:59:37.911Z,8.83
2024-02-14T15:02:06.701Z,8.46
2024-02-14T15:04:35.901Z,8.44
2024-02-14T15:07:03.573Z,8.42
2024-02-14T15:09:32.157Z,8.82
2024-02-14T15:12:00.380Z,8.72
2024-02-14T15:14:27.869Z,8.57
2024-02-14T15:16:54.605Z,7.96
2024-02-14T15:19:22.722Z,8.20
2024-02-14T15:21:50.584Z,8.36
2024-02-14T15:24:17.645Z,8.14
2024-02-14T15:27:02.546Z,8.56
2024-02-14T15:29:48.685Z,7.90
2024-02-14T15:32:34.465Z,8.13
2024-02-14T15:35:01.299Z,8.18
2024-02-14T15:37:27.963Z,7.42
2024-02-14T15:39:54.936Z,7.44
2024-02-14T15:42:21.632Z,7.43
2024-02-14T15:44:48.419Z,6.92
2024-02-14T15:47:16.354Z,7.15
2024-02-14T15:49:43.056Z,7.13
2024-02-14T15:52:09.740Z,7.28
2024-02-14T15:54:37.935Z,7.29
2024-02-14T15:57:04.641Z,6.78
2024-02-14T15:59:31.313Z,6.65
2024-02-14T16:01:57.995Z,6.61
2024-02-14T16:04:26.324Z,6.78
2024-02-14T16:06:53.098Z,6.76
2024-02-14T16:09:20.181Z,6.45
2024-02-14T16:11:47.254Z,6.76
2024-02-14T16:14:14.696Z,6.12
2024-02-14T16:16:41.400Z,6.46
2024-02-14T16:19:08.178Z,6.06
2024-02-14T16:21:35.090Z,6.30
2024-02-14T16:24:01.860Z,5.95
2024-02-14T16:26:31.015Z,6.23
2024-02-14T16:28:58.111Z,6.32
2024-02-14T16:31:24.801Z,6.50
2024-02-14T16:33:51.560Z,6.12
2024-02-14T16:36:18.372Z,5.63
2024-02-14T16:38:45.072Z,5.96
2024-02-14T16:41:12.142Z,5.69
2024-02-14T16:43:39.132Z,5.94
2024-02-14T16:46:06.005Z,6.09
2024-02-14T16:48:32.986Z,5.95
2024-02-14T16:50:59.827Z,5.95
2024-02-14T16:53:26.617Z,6.18
2024-02-14T16:55:53.275Z,5.47
2024-02-14T16:58:19.910Z,5.76
2024-02-14T17:00:46.689Z,5.52
2024-02-14T17:03:16.923Z,5.21
2024-02-14T17:05:45.876Z,5.70
2024-02-14T17:08:12.837Z,5.88
2024-02-14T17:10:39.876Z,5.52
2024-02-14T17:13:08.460Z,5.74
2024-02-14T17:15:36.077Z,5.73
2024-02-14T17:18:03.147Z,5.44
2024-02-14T17:20:30.014Z,4.66
2024-02-14T17:22:56.637Z,5.39
2024-02-14T17:25:23.275Z,4.63
2024-02-14T17:27:49.974Z,4.61
2024-02-14T17:30:17.384Z,4.94
2024-02-14T17:32:49.725Z,4.54
2024-02-14T17:35:17.465Z,4.70
2024-02-14T17:37:44.272Z,4.48
2024-02-14T17:40:11.293Z,4.75
2024-02-14T17:42:38.028Z,4.65
2024-02-14T17:45:08.489Z,4.53
2024-02-14T17:47:35.921Z,4.21
2024-02-14T17:50:04.296Z,4.33
2024-02-14T17:52:31.073Z,4.22
2024-02-14T17:54:57.886Z,4.20
2024-02-14T17:57:25.875Z,4.12
2024-02-14T17:59:53.147Z,3.89
2024-02-14T18:02:19.875Z,4.13
2024-02-14T18:04:46.968Z,4.10
2024-02-14T18:07:13.785Z,3.80
2024-02-14T18:09:40.608Z,3.14
2024-02-14T18:12:07.479Z,3.16
2024-02-14T18:14:34.342Z,3.70
2024-02-14T18:17:01.475Z,3.62
2024-02-14T18:19:28.397Z,3.45
2024-02-14T18:21:55.119Z,3.52
2024-02-14T18:24:21.954Z,3.25
2024-02-14T18:26:48.769Z,3.13
2024-02-14T18:29:15.631Z,3.18
2024-02-14T18:31:42.591Z,3.31
2024-02-14T18:34:09.418Z,3.40
2024-02-14T18:36:36.211Z,3.16
2024-02-14T18:39:03.181Z,3.70
2024-02-14T18:41:29.957Z,3.24
2024-02-14T18:44:00.010Z,3.25
2024-02-14T18:46:29.549Z,3.27
2024-02-14T18:48:56.399Z,3.39
2024-02-14T18:51:23.475Z,3.23
2024-02-14T18:53:52.030Z,3.29
2024-02-14T18:56:21.176Z,3.01
2024-02-14T18:58:48.381Z,3.09
2024-02-14T19:01:29.092Z,2.97
2024-02-14T19:10:42.764Z,3.04
2024-02-14T19:13:09.560Z,2.50
2024-02-14T19:15:37.315Z,2.34
2024-02-14T19:18:04.311Z,2.00
2024-02-14T19:20:31.867Z,2.73
2024-02-14T19:22:58.542Z,2.30
2024-02-14T19:25:25.652Z,2.50
2024-02-14T19:27:52.516Z,2.14
2024-02-14T19:30:19.540Z,2.67
2024-02-14T19:32:46.566Z,2.37
2024-02-14T19:35:13.333Z,2.25
2024-02-14T19:37:40.212Z,2.15
2024-02-14T19:40:09.027Z,2.38
2024-02-14T19:42:35.713Z,2.50
2024-02-14T19:45:02.490Z,2.45
2024-02-14T19:47:30.127Z,2.54
2024-02-14T19:49:57.113Z,1.82
2024-02-14T19:52:24.210Z,1.67
2024-02-14T19:54:51.056Z,1.81
2024-02-14T19:57:17.820Z,1.79
2024-02-14T19:59:44.826Z,1.82
2024-02-14T20:02:11.469Z,1.47
2024-02-14T20:04:38.573Z,1.57
2024-02-14T20:07:08.641Z,1.79
2024-02-14T20:09:35.388Z,1.80
2024-02-14T20:12:02.118Z,1.47
2024-02-14T20:14:28.972Z,1.29
2024-02-14T20:16:56.049Z,1.04
2024-02-14T20:19:22.845Z,1.14
2024-02-14T20:21:50.756Z,1.39
2024-02-14T20:24:17.516Z,0.89
2024-02-14T20:26:44.345Z,0.77
2024-02-14T20:29:11.119Z,0.81
2024-02-14T20:31:38.752Z,0.66
2024-02-14T20:34:05.961Z,0.65
2024-02-14T20:36:36.359Z,1.08
2024-02-14T20:39:04.154Z,0.79
2024-02-14T20:41:31.352Z,0.72
2024-02-14T20:43:58.125Z,0.72
2024-02-14T20:46:27.963Z,0.43
2024-02-14T20:48:54.953Z,0.55
2024-02-14T20:51:22.120Z,0.39
2024-02-14T20:53:49.304Z,0.16
2024-02-14T20:56:16.031Z,0.43
2024-02-14T20:58:56.364Z,0.53
2024-02-14T21:01:28.579Z,-0.14
2024-02-14T21:03:57.234Z,0.09
2024-02-14T21:06:24.194Z,0.29
2024-02-14T21:08:53.533Z,-0.09
2024-02-14T21:11:20.273Z,0.01
2024-02-14T21:13:47.013Z,-0.15
2024-02-14T21:16:13.854Z,-0.16
2024-02-14T21:18:40.626Z,-0.25
2024-02-14T21:21:07.916Z,-0.38
2024-02-14T21:23:35.103Z,0.31
2024-02-14T21:26:01.846Z,0.36
2024-02-14T21:28:28.858Z,0.32
2024-02-14T21:30:55.511Z,0.37
2024-02-14T21:33:26.038Z,0.05
2024-02-14T21:35:57.891Z,0.07
2024-02-14T21:38:24.745Z,0.03
2024-02-14T21:40:51.353Z,-0.19
2024-02-14T21:43:18.024Z,0.08
2024-02-14T21:45:44.644Z,0.15
2024-02-14T21:48:11.559Z,-0.07
2024-02-14T21:50:38.345Z,-0.04
2024-02-14T21:53:05.041Z,-0.00
2024-02-14T21:55:31.610Z,-0.47
2024-02-14T21:57:58.251Z,-0.29
2024-02-14T22:00:24.877Z,-0.38
2024-02-14T22:02:53.013Z,-0.16
2024-02-14T22:05:21.882Z,0.34
2024-02-14T22:07:48.870Z,0.20
2024-02-14T22:10:16.116Z,0.02
2024-02-14T22:12:43.243Z,0.12
2024-02-14T22:15:10.790Z,0.02
2024-02-14T22:17:38.963Z,0.02
2024-02-14T22:20:07.178Z,-0.24
2024-02-14T22:22:35.500Z,0.15
2024-02-14T22:25:02.401Z,0.20
2024-02-14T22:27:29.957Z,-0.06
2024-02-14T22:29:57.148Z,0.13
2024-02-14T22:32:24.008Z,0.16
2024-02-14T22:34:52.155Z,0.36
2024-02-14T22:37:19.334Z,-0.03
2024-02-14T22:39:45.961Z,0.62
2024-02-14T22:42:12.989Z,0.05
2024-02-14T22:44:40.113Z,0.51
2024-02-14T22:47:09.152Z,0.43
2024-02-14T22:49:35.931Z,0.66
2024-02-14T22:52:02.992Z,0.51
2024-02-14T22:54:29.605Z,0.52
2024-02-14T22:56:56.310Z,0.62
2024-02-14T22:59:23.785Z,0.50
2024-02-14T23:01:50.445Z,0.40
2024-02-14T23:04:17.191Z,0.31
2024-02-14T23:06:44.170Z,0.88
2024-02-14T23:09:11.274Z,0.74
2024-02-14T23:11:40.879Z,0.61
2024-02-14T23:14:07.943Z,0.53
2024-02-14T23:16:35.109Z,0.48
2024-02-14T23:19:02.307Z,0.25
2024-02-14T23:21:29.514Z,0.54
2024-02-14T23:23:56.264Z,0.80
2024-02-14T23:26:22.867Z,0.82
2024-02-14T23:28:49.534Z,0.81
2024-02-14T23:31:16.609Z,1.04
2024-02-14T23:33:43.868Z,1.12
2024-02-14T23:36:11.746Z,0.97
2024-02-14T23:38:40.218Z,0.99
2024-02-14T23:41:06.931Z,0.91
2024-02-14T23:43:33.774Z,1.12
2024-02-14T23:46:00.374Z,0.91
2024-02-14T23:48:27.261Z,0.76
2024-02-14T23:50:54.052Z,0.88
2024-02-14T23:53:20.859Z,0.81
2024-02-14T23:55:47.600Z,0.55
2024-02-14T23:58:15.890Z,0.69
